Amelia Court House, Virginia
Current Conditions -  °F | °C
As of 7:15 PM on Tuesday 25 Nov 2014 (Local Time) from KW81 Reporting Station
Clear Clear  
Wind Chill: 49°   Ceiling: Unl
Heat Index: 49°   Visibility: 10mi
Dew Point: 42°   Wind: 3mph
Humidity: 76%   Direction: 290°WNW
Pressure: 30.1"   Gusts: NA
Location:  37.34°N, 77.98°W
Report Text: KW81 260015Z AUTO 29003KT 10SM CLR 09/05 A3010 RMK AO1 T00940053
Loading
Personal Weather Stations






























Interactive Weather Map New forecast layout! Learn more

10-Day Weather Forecast

Advertisements
Track Severe Weather on mobile